sensor_id;sensor_type;location;lat;lon;timestamp;pressure;altitude;pressure_sealevel;temperature;humidity
19576;BME280;41589;51.196;7.074;2024-03-17T00:01:42;99717.56;;;9.01;56.95
19576;BME280;41589;51.196;7.074;2024-03-17T00:06:42;99710.25;;;9.04;57.01
19576;BME280;41589;51.196;7.074;2024-03-17T00:11:44;99706.25;;;9.05;56.86
19576;BME280;41589;51.196;7.074;2024-03-17T00:16:45;99697.56;;;8.99;56.89
19576;BME280;41589;51.196;7.074;2024-03-17T00:21:45;99684.31;;;8.99;57.07
19576;BME280;41589;51.196;7.074;2024-03-17T00:26:46;99698.06;;;8.94;56.34
19576;BME280;41589;51.196;7.074;2024-03-17T00:31:47;99680.34;;;8.81;56.29
19576;BME280;41589;51.196;7.074;2024-03-17T00:36:47;99680.00;;;8.79;56.40
19576;BME280;41589;51.196;7.074;2024-03-17T00:41:47;99675.25;;;8.76;56.46
19576;BME280;41589;51.196;7.074;2024-03-17T00:46:49;99678.22;;;8.68;55.86
19576;BME280;41589;51.196;7.074;2024-03-17T00:51:49;99676.56;;;8.71;56.18
19576;BME280;41589;51.196;7.074;2024-03-17T00:56:50;99670.59;;;8.69;56.46
19576;BME280;41589;51.196;7.074;2024-03-17T01:01:51;99661.47;;;8.65;56.18
19576;BME280;41589;51.196;7.074;2024-03-17T01:06:51;99651.28;;;8.71;56.04
19576;BME280;41589;51.196;7.074;2024-03-17T01:11:52;99654.81;;;8.75;56.39
19576;BME280;41589;51.196;7.074;2024-03-17T01:16:52;99639.13;;;8.78;56.31
19576;BME280;41589;51.196;7.074;2024-03-17T01:21:52;99639.56;;;8.76;56.40
19576;BME280;41589;51.196;7.074;2024-03-17T01:26:53;99636.81;;;8.73;55.89
19576;BME280;41589;51.196;7.074;2024-03-17T01:31:53;99641.22;;;8.74;56.10
19576;BME280;41589;51.196;7.074;2024-03-17T01:36:54;99645.25;;;8.73;56.36
19576;BME280;41589;51.196;7.074;2024-03-17T01:41:54;99638.06;;;8.72;56.28
19576;BME280;41589;51.196;7.074;2024-03-17T01:46:55;99641.41;;;8.66;56.48
19576;BME280;41589;51.196;7.074;2024-03-17T01:51:56;99622.63;;;8.63;56.57
19576;BME280;41589;51.196;7.074;2024-03-17T01:56:56;99619.44;;;8.61;56.39
19576;BME280;41589;51.196;7.074;2024-03-17T02:01:57;99620.25;;;8.62;56.82
19576;BME280;41589;51.196;7.074;2024-03-17T02:06:57;99623.59;;;8.57;56.71
19576;BME280;41589;51.196;7.074;2024-03-17T02:11:58;99621.13;;;8.59;56.53
19576;BME280;41589;51.196;7.074;2024-03-17T02:16:58;99610.84;;;8.52;56.85
19576;BME280;41589;51.196;7.074;2024-03-17T02:21:59;99609.22;;;8.55;56.78
19576;BME280;41589;51.196;7.074;2024-03-17T02:26:59;99608.88;;;8.53;57.43
19576;BME280;41589;51.196;7.074;2024-03-17T02:32:01;99609.81;;;8.46;57.14
19576;BME280;41589;51.196;7.074;2024-03-17T02:37:07;99600.31;;;8.40;57.56
19576;BME280;41589;51.196;7.074;2024-03-17T02:42:08;99599.53;;;8.39;57.69
19576;BME280;41589;51.196;7.074;2024-03-17T02:47:09;99595.16;;;8.38;58.08
19576;BME280;41589;51.196;7.074;2024-03-17T02:52:10;99599.88;;;8.41;58.40
19576;BME280;41589;51.196;7.074;2024-03-17T02:57:12;99598.16;;;8.48;58.35
19576;BME280;41589;51.196;7.074;2024-03-17T03:02:13;99601.47;;;8.43;58.59
19576;BME280;41589;51.196;7.074;2024-03-17T03:07:13;99600.69;;;8.42;58.71
19576;BME280;41589;51.196;7.074;2024-03-17T03:12:13;99604.00;;;8.37;58.86
19576;BME280;41589;51.196;7.074;2024-03-17T03:17:14;99600.41;;;8.36;59.11
19576;BME280;41589;51.196;7.074;2024-03-17T03:22:14;99591.47;;;8.41;59.11
19576;BME280;41589;51.196;7.074;2024-03-17T03:27:14;99593.72;;;8.30;59.03
19576;BME280;41589;51.196;7.074;2024-03-17T03:32:15;99590.22;;;8.26;59.38
19576;BME280;41589;51.196;7.074;2024-03-17T03:37:15;99589.53;;;8.22;59.48
19576;BME280;41589;51.196;7.074;2024-03-17T03:42:16;99581.03;;;8.26;59.76
19576;BME280;41589;51.196;7.074;2024-03-17T03:47:17;99582.69;;;8.23;59.94
19576;BME280;41589;51.196;7.074;2024-03-17T03:52:18;99593.91;;;8.23;59.80
19576;BME280;41589;51.196;7.074;2024-03-17T03:57:18;99598.41;;;8.17;59.99
19576;BME280;41589;51.196;7.074;2024-03-17T04:02:18;99590.78;;;8.18;60.31
19576;BME280;41589;51.196;7.074;2024-03-17T04:07:18;99594.56;;;8.11;60.38
19576;BME280;41589;51.196;7.074;2024-03-17T04:12:19;99586.84;;;8.15;60.48
19576;BME280;41589;51.196;7.074;2024-03-17T04:17:19;99583.25;;;8.15;60.94
19576;BME280;41589;51.196;7.074;2024-03-17T04:22:21;99584.53;;;8.10;60.85
19576;BME280;41589;51.196;7.074;2024-03-17T04:27:26;99579.72;;;8.10;60.91
19576;BME280;41589;51.196;7.074;2024-03-17T04:32:26;99564.84;;;8.13;60.79
19576;BME280;41589;51.196;7.074;2024-03-17T04:37:27;99563.28;;;8.12;60.51
19576;BME280;41589;51.196;7.074;2024-03-17T04:42:28;99557.22;;;8.14;61.32
19576;BME280;41589;51.196;7.074;2024-03-17T04:47:28;99554.88;;;8.12;61.07
19576;BME280;41589;51.196;7.074;2024-03-17T04:52:28;99564.91;;;8.10;61.02
19576;BME280;41589;51.196;7.074;2024-03-17T04:57:29;99569.13;;;8.02;60.78
19576;BME280;41589;51.196;7.074;2024-03-17T05:02:29;99553.16;;;7.99;61.21
19576;BME280;41589;51.196;7.074;2024-03-17T05:07:32;99547.56;;;7.99;61.41
19576;BME280;41589;51.196;7.074;2024-03-17T05:12:33;99541.16;;;7.98;60.97
19576;BME280;41589;51.196;7.074;2024-03-17T05:17:33;99543.97;;;7.98;61.10
19576;BME280;41589;51.196;7.074;2024-03-17T05:22:33;99538.88;;;7.93;60.96
19576;BME280;41589;51.196;7.074;2024-03-17T05:27:34;99543.69;;;7.93;61.49
19576;BME280;41589;51.196;7.074;2024-03-17T05:32:34;99552.81;;;7.97;61.66
19576;BME280;41589;51.196;7.074;2024-03-17T05:37:34;99550.28;;;8.02;61.28
19576;BME280;41589;51.196;7.074;2024-03-17T05:42:35;99550.78;;;7.97;61.08
19576;BME280;41589;51.196;7.074;2024-03-17T05:47:35;99560.53;;;7.93;61.43
19576;BME280;41589;51.196;7.074;2024-03-17T05:52:36;99556.84;;;7.96;61.38
19576;BME280;41589;51.196;7.074;2024-03-17T05:57:36;99546.25;;;8.03;61.45
19576;BME280;41589;51.196;7.074;2024-03-17T06:02:36;99549.31;;;8.09;60.91
19576;BME280;41589;51.196;7.074;2024-03-17T06:07:37;99537.41;;;8.05;61.10
19576;BME280;41589;51.196;7.074;2024-03-17T06:12:37;99540.47;;;8.10;61.53
19576;BME280;41589;51.196;7.074;2024-03-17T06:17:37;99538.03;;;8.12;61.29
19576;BME280;41589;51.196;7.074;2024-03-17T06:22:38;99540.66;;;8.20;61.00
19576;BME280;41589;51.196;7.074;2024-03-17T06:27:38;99523.41;;;8.21;61.36
19576;BME280;41589;51.196;7.074;2024-03-17T06:32:38;99528.88;;;8.28;61.25
19576;BME280;41589;51.196;7.074;2024-03-17T06:37:38;99520.63;;;8.37;61.13
19576;BME280;41589;51.196;7.074;2024-03-17T06:42:39;99522.16;;;8.42;61.44
19576;BME280;41589;51.196;7.074;2024-03-17T06:47:39;99519.84;;;8.53;61.11
19576;BME280;41589;51.196;7.074;2024-03-17T06:52:44;99522.75;;;8.66;61.00
19576;BME280;41589;51.196;7.074;2024-03-17T06:57:44;99517.09;;;8.82;60.89
19576;BME280;41589;51.196;7.074;2024-03-17T07:02:44;99507.75;;;9.02;60.62
19576;BME280;41589;51.196;7.074;2024-03-17T07:07:45;99497.00;;;9.13;60.70
19576;BME280;41589;51.196;7.074;2024-03-17T07:12:45;99476.84;;;9.43;60.69
19576;BME280;41589;51.196;7.074;2024-03-17T07:17:46;99494.81;;;9.88;60.27
19576;BME280;41589;51.196;7.074;2024-03-17T07:22:48;99492.47;;;10.11;59.98
19576;BME280;41589;51.196;7.074;2024-03-17T07:27:48;99515.53;;;10.32;59.63
19576;BME280;41589;51.196;7.074;2024-03-17T07:32:49;99505.59;;;10.40;58.88
19576;BME280;41589;51.196;7.074;2024-03-17T07:37:50;99504.69;;;10.43;58.71
19576;BME280;41589;51.196;7.074;2024-03-17T07:42:50;99513.13;;;10.56;58.70
19576;BME280;41589;51.196;7.074;2024-03-17T07:47:50;99501.72;;;10.59;58.35
19576;BME280;41589;51.196;7.074;2024-03-17T07:52:50;99511.63;;;10.98;58.53
19576;BME280;41589;51.196;7.074;2024-03-17T07:57:51;99502.97;;;11.27;58.46
19576;BME280;41589;51.196;7.074;2024-03-17T08:02:51;99496.00;;;11.63;58.24
19576;BME280;41589;51.196;7.074;2024-03-17T08:07:52;99509.94;;;11.89;57.58
19576;BME280;41589;51.196;7.074;2024-03-17T08:12:52;99516.72;;;12.00;57.63
19576;BME280;41589;51.196;7.074;2024-03-17T08:17:53;99523.38;;;12.15;56.75
19576;BME280;41589;51.196;7.074;2024-03-17T08:22:53;99522.16;;;12.26;56.34
19576;BME280;41589;51.196;7.074;2024-03-17T08:27:53;99523.28;;;12.28;55.51
19576;BME280;41589;51.196;7.074;2024-03-17T08:32:54;99513.91;;;12.40;55.68
19576;BME280;41589;51.196;7.074;2024-03-17T08:37:54;99516.84;;;12.28;54.90
19576;BME280;41589;51.196;7.074;2024-03-17T08:42:54;99527.84;;;12.35;54.58
19576;BME280;41589;51.196;7.074;2024-03-17T08:47:55;99517.50;;;12.41;54.55
19576;BME280;41589;51.196;7.074;2024-03-17T08:52:55;99517.78;;;12.83;54.63
19576;BME280;41589;51.196;7.074;2024-03-17T08:57:55;99501.78;;;13.17;54.02
19576;BME280;41589;51.196;7.074;2024-03-17T09:02:56;99495.47;;;13.31;53.63
19576;BME280;41589;51.196;7.074;2024-03-17T09:07:57;99496.13;;;13.44;53.33
19576;BME280;41589;51.196;7.074;2024-03-17T09:12:57;99494.50;;;13.52;53.07
19576;BME280;41589;51.196;7.074;2024-03-17T09:17:57;99494.38;;;13.65;53.12
19576;BME280;41589;51.196;7.074;2024-03-17T09:22:58;99490.25;;;13.75;52.70
19576;BME280;41589;51.196;7.074;2024-03-17T09:27:59;99482.06;;;13.77;52.03
19576;BME280;41589;51.196;7.074;2024-03-17T09:32:59;99480.50;;;13.85;52.54
19576;BME280;41589;51.196;7.074;2024-03-17T09:38:00;99484.41;;;13.88;52.11
19576;BME280;41589;51.196;7.074;2024-03-17T09:43:00;99480.75;;;13.97;52.33
19576;BME280;41589;51.196;7.074;2024-03-17T09:48:00;99475.06;;;14.06;51.77
19576;BME280;41589;51.196;7.074;2024-03-17T09:53:01;99471.38;;;14.14;51.28
19576;BME280;41589;51.196;7.074;2024-03-17T09:58:02;99476.44;;;14.10;51.74
19576;BME280;41589;51.196;7.074;2024-03-17T10:03:02;99477.41;;;14.40;51.66
19576;BME280;41589;51.196;7.074;2024-03-17T10:08:03;99496.91;;;14.38;51.38
19576;BME280;41589;51.196;7.074;2024-03-17T10:13:03;99494.47;;;14.22;52.00
19576;BME280;41589;51.196;7.074;2024-03-17T10:18:20;99491.41;;;14.35;51.60
19576;BME280;41589;51.196;7.074;2024-03-17T10:23:22;99491.34;;;14.77;51.91
19576;BME280;41589;51.196;7.074;2024-03-17T10:28:23;99493.94;;;14.90;50.58
19576;BME280;41589;51.196;7.074;2024-03-17T10:33:24;99504.59;;;14.95;51.49
19576;BME280;41589;51.196;7.074;2024-03-17T10:38:29;99502.44;;;15.28;51.03
19576;BME280;41589;51.196;7.074;2024-03-17T10:43:29;99505.66;;;15.75;51.36
19576;BME280;41589;51.196;7.074;2024-03-17T10:48:31;99494.00;;;15.73;49.60
19576;BME280;41589;51.196;7.074;2024-03-17T10:53:33;99499.91;;;15.60;50.14
19576;BME280;41589;51.196;7.074;2024-03-17T10:58:35;99491.34;;;16.34;49.17
19576;BME280;41589;51.196;7.074;2024-03-17T11:03:37;99480.59;;;16.58;48.35
19576;BME280;41589;51.196;7.074;2024-03-17T11:08:37;99491.56;;;16.86;48.07
19576;BME280;41589;51.196;7.074;2024-03-17T11:13:38;99479.09;;;16.78;47.88
19576;BME280;41589;51.196;7.074;2024-03-17T11:18:39;99472.25;;;16.69;47.69
19576;BME280;41589;51.196;7.074;2024-03-17T11:23:41;99480.84;;;16.75;47.91
19576;BME280;41589;51.196;7.074;2024-03-17T11:39:04;99482.25;;;16.85;47.10
19576;BME280;41589;51.196;7.074;2024-03-17T11:44:25;99474.47;;;16.80;47.13
19576;BME280;41589;51.196;7.074;2024-03-17T11:49:39;99482.34;;;16.91;46.27
19576;BME280;41589;51.196;7.074;2024-03-17T11:54:46;99476.72;;;16.56;45.82
19576;BME280;41589;51.196;7.074;2024-03-17T11:59:48;99472.53;;;16.71;47.13
19576;BME280;41589;51.196;7.074;2024-03-17T12:04:49;99457.03;;;16.93;45.72
19576;BME280;41589;51.196;7.074;2024-03-17T12:09:52;99452.22;;;16.79;46.03
19576;BME280;41589;51.196;7.074;2024-03-17T12:14:57;99434.13;;;17.02;46.35
19576;BME280;41589;51.196;7.074;2024-03-17T12:19:57;99434.19;;;17.28;45.64
19576;BME280;41589;51.196;7.074;2024-03-17T12:24:58;99436.47;;;17.03;45.21
19576;BME280;41589;51.196;7.074;2024-03-17T12:29:59;99428.81;;;17.62;45.06
19576;BME280;41589;51.196;7.074;2024-03-17T12:35:00;99407.97;;;18.13;44.87
19576;BME280;41589;51.196;7.074;2024-03-17T12:40:01;99402.34;;;18.24;43.85
19576;BME280;41589;51.196;7.074;2024-03-17T12:45:01;99402.88;;;18.23;43.46
19576;BME280;41589;51.196;7.074;2024-03-17T12:50:11;99396.59;;;18.18;42.38
19576;BME280;41589;51.196;7.074;2024-03-17T12:55:18;99389.56;;;18.08;43.38
19576;BME280;41589;51.196;7.074;2024-03-17T13:00:37;99383.25;;;18.41;43.30
19576;BME280;41589;51.196;7.074;2024-03-17T13:05:38;99379.25;;;18.16;42.41
19576;BME280;41589;51.196;7.074;2024-03-17T13:10:38;99358.47;;;18.10;42.70
19576;BME280;41589;51.196;7.074;2024-03-17T13:15:39;99360.13;;;18.23;41.77
19576;BME280;41589;51.196;7.074;2024-03-17T13:20:39;99357.13;;;17.95;42.10
19576;BME280;41589;51.196;7.074;2024-03-17T13:25:39;99345.06;;;17.74;42.01
19576;BME280;41589;51.196;7.074;2024-03-17T13:30:43;99333.56;;;18.00;42.31
19576;BME280;41589;51.196;7.074;2024-03-17T13:35:44;99316.78;;;18.02;41.26
19576;BME280;41589;51.196;7.074;2024-03-17T13:40:44;99316.00;;;18.01;41.58
19576;BME280;41589;51.196;7.074;2024-03-17T13:45:44;99319.81;;;17.93;42.34
19576;BME280;41589;51.196;7.074;2024-03-17T13:50:47;99309.75;;;17.97;41.73
19576;BME280;41589;51.196;7.074;2024-03-17T13:55:49;99315.03;;;17.73;41.75
19576;BME280;41589;51.196;7.074;2024-03-17T14:00:51;99303.31;;;17.59;41.90
19576;BME280;41589;51.196;7.074;2024-03-17T14:05:53;99304.25;;;17.51;42.33
19576;BME280;41589;51.196;7.074;2024-03-17T14:10:53;99296.44;;;17.40;42.00
19576;BME280;41589;51.196;7.074;2024-03-17T14:15:56;99305.16;;;17.31;41.88
19576;BME280;41589;51.196;7.074;2024-03-17T14:20:57;99296.97;;;17.13;41.83
19576;BME280;41589;51.196;7.074;2024-03-17T14:25:57;99296.47;;;17.14;41.76
19576;BME280;41589;51.196;7.074;2024-03-17T14:30:58;99281.47;;;17.14;41.83
19576;BME280;41589;51.196;7.074;2024-03-17T14:35:58;99284.81;;;17.12;41.25
19576;BME280;41589;51.196;7.074;2024-03-17T14:40:58;99282.00;;;16.86;41.76
19576;BME280;41589;51.196;7.074;2024-03-17T14:45:59;99278.44;;;16.91;41.81
19576;BME280;41589;51.196;7.074;2024-03-17T14:50:59;99279.97;;;16.92;42.30
19576;BME280;41589;51.196;7.074;2024-03-17T14:55:59;99267.50;;;16.84;42.87
19576;BME280;41589;51.196;7.074;2024-03-17T15:01:00;99265.50;;;16.90;42.55
19576;BME280;41589;51.196;7.074;2024-03-17T15:06:00;99255.25;;;16.98;42.50
19576;BME280;41589;51.196;7.074;2024-03-17T15:11:00;99256.47;;;16.92;42.63
19576;BME280;41589;51.196;7.074;2024-03-17T15:16:02;99248.38;;;16.85;42.90
19576;BME280;41589;51.196;7.074;2024-03-17T15:21:04;99243.03;;;16.92;43.02
19576;BME280;41589;51.196;7.074;2024-03-17T15:26:07;99238.34;;;16.63;42.79
19576;BME280;41589;51.196;7.074;2024-03-17T15:31:09;99229.25;;;16.59;42.77
19576;BME280;41589;51.196;7.074;2024-03-17T15:36:10;99219.56;;;16.66;43.22
19576;BME280;41589;51.196;7.074;2024-03-17T15:41:10;99215.84;;;16.60;43.29
19576;BME280;41589;51.196;7.074;2024-03-17T15:46:16;99214.03;;;16.62;42.92
19576;BME280;41589;51.196;7.074;2024-03-17T15:51:18;99218.69;;;16.60;43.20
19576;BME280;41589;51.196;7.074;2024-03-17T15:56:21;99204.41;;;16.54;43.12
19576;BME280;41589;51.196;7.074;2024-03-17T16:01:21;99196.34;;;16.47;43.19
19576;BME280;41589;51.196;7.074;2024-03-17T16:06:21;99192.50;;;16.50;43.33
19576;BME280;41589;51.196;7.074;2024-03-17T16:11:27;99192.47;;;16.44;43.25
19576;BME280;41589;51.196;7.074;2024-03-17T16:16:28;99193.50;;;16.47;43.25
19576;BME280;41589;51.196;7.074;2024-03-17T16:21:31;99180.25;;;16.38;43.95
19576;BME280;41589;51.196;7.074;2024-03-17T16:26:31;99182.69;;;16.51;44.07
19576;BME280;41589;51.196;7.074;2024-03-17T16:31:33;99183.19;;;16.50;44.40
19576;BME280;41589;51.196;7.074;2024-03-17T16:36:34;99183.41;;;16.72;44.21
19576;BME280;41589;51.196;7.074;2024-03-17T16:41:39;99181.34;;;16.72;44.17
19576;BME280;41589;51.196;7.074;2024-03-17T16:51:50;99175.06;;;16.94;44.20
19576;BME280;41589;51.196;7.074;2024-03-17T16:56:50;99182.69;;;17.09;44.28
19576;BME280;41589;51.196;7.074;2024-03-17T17:01:51;99183.28;;;17.24;44.25
19576;BME280;41589;51.196;7.074;2024-03-17T17:06:52;99188.72;;;17.27;44.25
19576;BME280;41589;51.196;7.074;2024-03-17T17:11:52;99182.56;;;17.29;44.32
19576;BME280;41589;51.196;7.074;2024-03-17T17:16:53;99173.78;;;17.38;43.95
19576;BME280;41589;51.196;7.074;2024-03-17T17:21:54;99188.31;;;17.40;43.44
19576;BME280;41589;51.196;7.074;2024-03-17T17:26:54;99186.47;;;17.37;43.07
19576;BME280;41589;51.196;7.074;2024-03-17T17:31:55;99180.75;;;17.31;42.60
19576;BME280;41589;51.196;7.074;2024-03-17T17:36:55;99183.22;;;17.13;42.72
19576;BME280;41589;51.196;7.074;2024-03-17T17:41:56;99181.50;;;16.89;42.96
19576;BME280;41589;51.196;7.074;2024-03-17T17:47:04;99178.91;;;16.60;43.04
19576;BME280;41589;51.196;7.074;2024-03-17T17:52:04;99163.66;;;16.63;43.15
19576;BME280;41589;51.196;7.074;2024-03-17T17:57:04;99178.53;;;16.46;43.26
19576;BME280;41589;51.196;7.074;2024-03-17T18:02:06;99181.16;;;16.24;43.50
19576;BME280;41589;51.196;7.074;2024-03-17T18:07:06;99184.06;;;16.09;43.91
19576;BME280;41589;51.196;7.074;2024-03-17T18:12:07;99178.81;;;16.02;44.00
19576;BME280;41589;51.196;7.074;2024-03-17T18:17:07;99187.72;;;15.89;44.33
19576;BME280;41589;51.196;7.074;2024-03-17T18:22:08;99183.47;;;15.79;44.36
19576;BME280;41589;51.196;7.074;2024-03-17T18:27:08;99182.31;;;15.71;44.62
19576;BME280;41589;51.196;7.074;2024-03-17T18:32:08;99183.44;;;15.59;44.92
19576;BME280;41589;51.196;7.074;2024-03-17T18:37:09;99174.09;;;15.53;45.16
19576;BME280;41589;51.196;7.074;2024-03-17T18:42:09;99173.16;;;15.41;45.37
19576;BME280;41589;51.196;7.074;2024-03-17T18:47:11;99175.38;;;15.17;45.51
19576;BME280;41589;51.196;7.074;2024-03-17T18:52:11;99174.81;;;15.13;45.68
19576;BME280;41589;51.196;7.074;2024-03-17T18:57:11;99165.66;;;15.03;45.75
19576;BME280;41589;51.196;7.074;2024-03-17T19:02:12;99167.59;;;14.97;45.75
19576;BME280;41589;51.196;7.074;2024-03-17T19:07:12;99171.72;;;14.96;46.06
19576;BME280;41589;51.196;7.074;2024-03-17T19:12:12;99159.03;;;14.91;46.54
19576;BME280;41589;51.196;7.074;2024-03-17T19:17:13;99155.81;;;14.84;46.38
19576;BME280;41589;51.196;7.074;2024-03-17T19:22:13;99156.69;;;14.75;46.66
19576;BME280;41589;51.196;7.074;2024-03-17T19:27:13;99150.66;;;14.67;46.95
19576;BME280;41589;51.196;7.074;2024-03-17T19:32:14;99137.16;;;14.62;47.09
19576;BME280;41589;51.196;7.074;2024-03-17T19:37:14;99147.31;;;14.54;47.65
19576;BME280;41589;51.196;7.074;2024-03-17T19:42:15;99152.22;;;14.39;48.26
19576;BME280;41589;51.196;7.074;2024-03-17T19:47:16;99159.75;;;14.42;48.44
19576;BME280;41589;51.196;7.074;2024-03-17T19:52:19;99155.13;;;14.44;48.86
19576;BME280;41589;51.196;7.074;2024-03-17T19:57:21;99157.56;;;14.22;49.31
19576;BME280;41589;51.196;7.074;2024-03-17T20:02:21;99153.97;;;14.22;49.50
19576;BME280;41589;51.196;7.074;2024-03-17T20:07:22;99150.47;;;14.27;49.59
19576;BME280;41589;51.196;7.074;2024-03-17T20:12:22;99151.13;;;14.22;49.64
19576;BME280;41589;51.196;7.074;2024-03-17T20:17:22;99152.63;;;14.17;49.68
19576;BME280;41589;51.196;7.074;2024-03-17T20:22:25;99150.03;;;14.04;50.03
19576;BME280;41589;51.196;7.074;2024-03-17T20:27:25;99147.22;;;14.04;50.24
19576;BME280;41589;51.196;7.074;2024-03-17T20:32:25;99146.13;;;14.02;50.37
19576;BME280;41589;51.196;7.074;2024-03-17T20:37:27;99131.69;;;14.00;50.35
19576;BME280;41589;51.196;7.074;2024-03-17T20:42:27;99120.09;;;13.98;50.74
19576;BME280;41589;51.196;7.074;2024-03-17T20:47:28;99116.19;;;13.95;50.91
19576;BME280;41589;51.196;7.074;2024-03-17T20:52:28;99118.41;;;13.91;50.99
19576;BME280;41589;51.196;7.074;2024-03-17T20:57:28;99116.84;;;13.90;51.07
19576;BME280;41589;51.196;7.074;2024-03-17T21:02:29;99113.16;;;13.84;51.06
19576;BME280;41589;51.196;7.074;2024-03-17T21:07:29;99105.13;;;13.82;51.37
19576;BME280;41589;51.196;7.074;2024-03-17T21:12:29;99121.94;;;13.86;51.49
19576;BME280;41589;51.196;7.074;2024-03-17T21:17:30;99110.00;;;13.82;51.38
19576;BME280;41589;51.196;7.074;2024-03-17T21:22:30;99104.91;;;13.71;51.80
19576;BME280;41589;51.196;7.074;2024-03-17T21:27:30;99097.53;;;13.74;52.10
19576;BME280;41589;51.196;7.074;2024-03-17T21:32:31;99100.81;;;13.72;52.35
19576;BME280;41589;51.196;7.074;2024-03-17T21:37:33;99103.34;;;13.70;52.88
19576;BME280;41589;51.196;7.074;2024-03-17T21:42:33;99094.88;;;13.70;53.19
19576;BME280;41589;51.196;7.074;2024-03-17T21:47:34;99079.88;;;13.64;54.09
19576;BME280;41589;51.196;7.074;2024-03-17T21:52:34;99084.06;;;13.69;54.44
19576;BME280;41589;51.196;7.074;2024-03-17T21:57:37;99079.72;;;13.58;55.26
19576;BME280;41589;51.196;7.074;2024-03-17T22:02:41;99073.16;;;13.52;55.82
19576;BME280;41589;51.196;7.074;2024-03-17T22:07:41;99078.22;;;13.48;56.67
19576;BME280;41589;51.196;7.074;2024-03-17T22:12:41;99072.34;;;13.37;56.61
19576;BME280;41589;51.196;7.074;2024-03-17T22:17:41;99069.88;;;13.30;57.28
19576;BME280;41589;51.196;7.074;2024-03-17T22:22:42;99069.50;;;13.22;57.59
19576;BME280;41589;51.196;7.074;2024-03-17T22:27:42;99068.78;;;13.13;58.30
19576;BME280;41589;51.196;7.074;2024-03-17T22:32:43;99061.38;;;13.15;58.35
19576;BME280;41589;51.196;7.074;2024-03-17T22:37:43;99048.66;;;13.11;58.59
19576;BME280;41589;51.196;7.074;2024-03-17T22:42:47;99062.09;;;13.01;58.76
19576;BME280;41589;51.196;7.074;2024-03-17T22:47:47;99052.38;;;13.02;58.93
19576;BME280;41589;51.196;7.074;2024-03-17T22:52:47;99038.41;;;12.98;59.21
19576;BME280;41589;51.196;7.074;2024-03-17T22:57:48;99044.44;;;12.91;59.27
19576;BME280;41589;51.196;7.074;2024-03-17T23:02:48;99051.16;;;12.94;59.07
19576;BME280;41589;51.196;7.074;2024-03-17T23:07:49;99044.84;;;12.99;59.46
19576;BME280;41589;51.196;7.074;2024-03-17T23:12:49;99034.78;;;12.98;59.57
19576;BME280;41589;51.196;7.074;2024-03-17T23:17:50;99029.63;;;12.96;59.74
19576;BME280;41589;51.196;7.074;2024-03-17T23:22:50;99034.22;;;12.94;59.87
19576;BME280;41589;51.196;7.074;2024-03-17T23:27:51;99033.44;;;12.93;60.09
19576;BME280;41589;51.196;7.074;2024-03-17T23:32:51;99032.66;;;12.93;60.21
19576;BME280;41589;51.196;7.074;2024-03-17T23:37:54;99028.84;;;12.96;60.37
19576;BME280;41589;51.196;7.074;2024-03-17T23:42:55;99031.91;;;12.83;60.61
19576;BME280;41589;51.196;7.074;2024-03-17T23:47:55;99025.66;;;12.79;60.71
19576;BME280;41589;51.196;7.074;2024-03-17T23:52:56;99022.59;;;12.68;61.54
19576;BME280;41589;51.196;7.074;2024-03-17T23:57:57;99020.72;;;12.65;62.47
